createdAt,value
2019-01-19T00:01:45.603Z,9.83
2019-01-19T00:04:30.052Z,9.67
2019-01-19T00:07:17.886Z,9.90
2019-01-19T00:09:50.460Z,17.07
2019-01-19T00:12:23.128Z,10.67
2019-01-19T00:14:53.262Z,9.70
2019-01-19T00:17:59.415Z,10.10
2019-01-19T00:20:37.714Z,10.07
2019-01-19T00:23:30.074Z,11.20
2019-01-19T00:26:19.196Z,11.33
2019-01-19T00:28:54.403Z,10.67
2019-01-19T00:31:29.676Z,11.47
2019-01-19T00:34:10.980Z,11.77
2019-01-19T00:36:49.170Z,11.03
2019-01-19T00:39:30.689Z,11.60
2019-01-19T00:42:09.090Z,11.73
2019-01-19T00:44:50.391Z,11.43
2019-01-19T00:47:48.726Z,11.17
2019-01-19T00:50:25.016Z,11.23
2019-01-19T00:52:57.650Z,11.73
2019-01-19T00:55:46.415Z,11.50
2019-01-19T00:58:24.625Z,12.03
2019-01-19T01:01:03.198Z,11.47
2019-01-19T01:03:44.569Z,12.33
2019-01-19T01:06:17.185Z,12.87
2019-01-19T01:08:49.811Z,12.20
2019-01-19T01:11:28.132Z,12.67
2019-01-19T01:14:15.991Z,12.57
2019-01-19T01:16:51.249Z,13.30
2019-01-19T01:19:32.873Z,13.43
2019-01-19T01:22:23.686Z,13.67
2019-01-19T01:24:56.308Z,13.53
2019-01-19T01:27:34.765Z,14.90
2019-01-19T01:30:16.135Z,14.20
2019-01-19T01:33:13.011Z,14.03
2019-01-19T01:36:12.536Z,13.70
2019-01-19T01:39:15.717Z,14.50
2019-01-19T01:41:56.823Z,13.43
2019-01-19T01:44:47.455Z,14.37
2019-01-19T01:47:28.928Z,13.77
2019-01-19T01:50:04.075Z,14.13
2019-01-19T01:52:48.514Z,13.67
2019-01-19T01:55:23.683Z,13.77
2019-01-19T01:57:56.263Z,13.97
2019-01-19T02:00:46.875Z,13.70
2019-01-19T02:03:34.443Z,13.87
2019-01-19T02:06:12.426Z,13.97
2019-01-19T02:08:54.219Z,14.13
2019-01-19T02:11:32.940Z,13.33
2019-01-19T02:14:08.401Z,13.87
2019-01-19T02:16:49.660Z,14.37
2019-01-19T02:19:27.960Z,13.40
2019-01-19T02:22:16.807Z,13.57
2019-01-19T02:25:04.083Z,13.50
2019-01-19T02:27:45.367Z,13.30
2019-01-19T02:30:51.647Z,13.27
2019-01-19T02:33:39.106Z,12.73
2019-01-19T02:36:17.312Z,14.30
2019-01-19T02:38:55.884Z,13.07
2019-01-19T02:41:47.950Z,12.67
2019-01-19T02:44:23.298Z,13.00
2019-01-19T02:47:08.077Z,12.83
2019-01-19T02:50:00.884Z,12.97
2019-01-19T02:52:42.115Z,12.87
2019-01-19T02:55:23.559Z,12.87
2019-01-19T02:58:08.340Z,13.03
2019-01-19T03:01:07.156Z,12.37
2019-01-19T03:04:00.943Z,12.30
2019-01-19T03:06:48.683Z,11.33
2019-01-19T03:09:24.372Z,11.33
2019-01-19T03:11:59.828Z,11.20
2019-01-19T03:14:35.273Z,10.70
2019-01-19T03:17:10.754Z,11.60
2019-01-19T03:19:45.856Z,9.90
2019-01-19T03:22:30.259Z,10.73
2019-01-19T03:25:19.334Z,11.77
2019-01-19T03:28:03.891Z,11.97
2019-01-19T03:30:48.280Z,12.87
2019-01-19T03:33:52.353Z,13.00
2019-01-19T03:36:36.376Z,12.73
2019-01-19T03:39:31.809Z,12.37
2019-01-19T03:42:10.148Z,14.10
2019-01-19T03:44:57.984Z,13.60
2019-01-19T03:47:36.253Z,13.50
2019-01-19T03:50:17.484Z,13.67
2019-01-19T03:52:55.795Z,13.80
2019-01-19T03:55:58.930Z,14.17
2019-01-19T03:58:40.439Z,13.70
2019-01-19T04:01:31.001Z,14.37
2019-01-19T04:04:26.427Z,15.53
2019-01-19T04:07:11.067Z,15.60
2019-01-19T04:10:01.615Z,13.50
2019-01-19T04:12:52.286Z,14.47
2019-01-19T04:15:36.732Z,16.27
2019-01-19T04:18:15.412Z,16.47
2019-01-19T04:21:04.746Z,16.03
2019-01-19T04:23:34.392Z,16.07
2019-01-19T04:26:05.327Z,17.90
2019-01-19T04:28:35.036Z,17.13
2019-01-19T04:31:05.383Z,18.20
2019-01-19T04:33:34.839Z,17.63
2019-01-19T04:36:05.391Z,18.20
2019-01-19T04:38:36.491Z,19.03
2019-01-19T04:41:05.912Z,18.50
2019-01-19T04:43:35.199Z,19.90
2019-01-19T04:46:05.739Z,18.07
2019-01-19T04:48:35.825Z,17.60
2019-01-19T04:51:05.194Z,18.23
2019-01-19T04:53:34.575Z,20.10
2019-01-19T04:56:03.990Z,19.73
2019-01-19T04:58:33.502Z,21.07
2019-01-19T05:01:02.800Z,28.60
2019-01-19T05:03:32.087Z,27.57
2019-01-19T05:06:01.435Z,26.67
2019-01-19T05:08:30.770Z,24.53
2019-01-19T05:11:00.378Z,24.83
2019-01-19T05:13:29.971Z,24.90
2019-01-19T05:15:59.277Z,23.60
2019-01-19T05:18:28.696Z,22.40
2019-01-19T05:20:58.404Z,22.63
2019-01-19T05:23:27.981Z,21.97
2019-01-19T05:25:57.443Z,22.23
2019-01-19T05:28:26.915Z,21.53
2019-01-19T05:30:56.227Z,20.87
2019-01-19T05:33:25.715Z,21.13
2019-01-19T05:35:54.989Z,20.63
2019-01-19T05:38:24.299Z,20.60
2019-01-19T05:40:53.643Z,21.10
2019-01-19T05:43:22.948Z,22.27
2019-01-19T05:45:52.252Z,22.77
2019-01-19T05:48:21.593Z,21.13
2019-01-19T05:50:50.991Z,21.23
2019-01-19T05:53:21.187Z,22.20
2019-01-19T05:55:50.497Z,22.97
2019-01-19T05:58:19.864Z,22.70
2019-01-19T06:00:49.239Z,22.07
2019-01-19T06:03:18.513Z,21.27
2019-01-19T06:05:48.093Z,21.07
2019-01-19T06:08:17.453Z,21.07
2019-01-19T06:10:46.894Z,22.63
2019-01-19T06:13:16.481Z,22.70
2019-01-19T06:15:45.741Z,22.17
2019-01-19T06:18:15.147Z,22.53
2019-01-19T06:20:44.442Z,22.03
2019-01-19T06:23:13.794Z,23.23
2019-01-19T06:25:43.089Z,22.13
2019-01-19T06:28:12.393Z,22.03
2019-01-19T06:30:41.728Z,23.93
2019-01-19T06:33:11.092Z,23.23
2019-01-19T06:35:40.547Z,24.23
2019-01-19T06:38:09.896Z,27.23
2019-01-19T06:40:39.198Z,26.97
2019-01-19T06:43:08.574Z,26.47
2019-01-19T06:45:37.941Z,25.13
2019-01-19T06:48:07.236Z,25.03
2019-01-19T06:50:36.620Z,27.07
2019-01-19T06:53:05.932Z,26.73
2019-01-19T06:55:35.307Z,27.37
2019-01-19T06:58:04.685Z,26.40
2019-01-19T07:00:34.015Z,24.27
2019-01-19T07:03:03.324Z,25.90
2019-01-19T07:05:32.740Z,26.70
2019-01-19T07:08:02.051Z,29.07
2019-01-19T07:10:31.377Z,29.90
2019-01-19T07:13:00.683Z,28.13
2019-01-19T07:15:30.009Z,30.43
2019-01-19T07:17:59.428Z,30.87
2019-01-19T07:20:30.992Z,30.97
2019-01-19T07:23:00.496Z,32.33
2019-01-19T07:25:29.822Z,33.80
2019-01-19T07:27:59.151Z,34.13
2019-01-19T07:30:28.656Z,33.63
2019-01-19T07:32:57.914Z,33.77
2019-01-19T07:35:27.222Z,33.03
2019-01-19T07:37:56.602Z,34.40
2019-01-19T07:40:26.123Z,34.07
2019-01-19T07:42:59.875Z,33.03
2019-01-19T07:45:29.191Z,34.20
2019-01-19T07:47:58.749Z,34.10
2019-01-19T07:50:28.123Z,32.63
2019-01-19T07:52:57.651Z,30.03
2019-01-19T07:55:27.182Z,32.63
2019-01-19T07:57:56.495Z,24.93
2019-01-19T08:00:30.911Z,24.50
2019-01-19T08:03:00.223Z,21.53
2019-01-19T08:05:29.603Z,20.30
2019-01-19T08:07:59.063Z,19.53
2019-01-19T08:10:28.379Z,19.20
2019-01-19T08:12:57.709Z,18.87
2019-01-19T08:15:29.492Z,19.03
2019-01-19T08:17:59.012Z,18.77
2019-01-19T08:20:28.354Z,18.10
2019-01-19T08:22:57.728Z,18.57
2019-01-19T08:25:27.103Z,16.17
2019-01-19T08:27:56.640Z,17.87
2019-01-19T08:30:30.438Z,17.40
2019-01-19T08:32:59.931Z,16.73
2019-01-19T08:35:29.625Z,17.43
2019-01-19T08:37:58.999Z,16.13
2019-01-19T08:40:34.757Z,17.13
2019-01-19T08:43:08.455Z,17.33
2019-01-19T08:45:38.135Z,17.70
2019-01-19T08:48:08.822Z,16.90
2019-01-19T08:50:39.193Z,16.87
2019-01-19T08:53:08.492Z,16.93
2019-01-19T08:55:38.221Z,18.57
2019-01-19T08:58:07.688Z,16.97
2019-01-19T09:00:37.128Z,15.63
2019-01-19T09:03:06.737Z,16.03
2019-01-19T09:05:36.372Z,16.80
2019-01-19T09:08:05.741Z,17.37
2019-01-19T09:10:35.232Z,16.90
2019-01-19T09:13:04.598Z,18.87
2019-01-19T09:15:33.984Z,15.20
2019-01-19T09:18:03.333Z,17.63
2019-01-19T09:20:32.634Z,18.00
2019-01-19T09:23:03.617Z,16.53
2019-01-19T09:25:32.982Z,17.03
2019-01-19T09:28:02.290Z,17.00
2019-01-19T09:30:32.718Z,17.13
2019-01-19T09:33:02.379Z,17.50
2019-01-19T09:35:31.896Z,17.47
2019-01-19T09:38:01.272Z,16.37
2019-01-19T09:40:30.583Z,16.60
2019-01-19T09:42:59.928Z,17.47
2019-01-19T09:45:29.250Z,15.50
2019-01-19T09:47:58.555Z,14.30
2019-01-19T09:50:28.005Z,15.47
2019-01-19T09:52:57.406Z,14.30
2019-01-19T09:55:26.739Z,14.80
2019-01-19T09:57:56.037Z,14.60
2019-01-19T10:00:27.283Z,13.63
2019-01-19T10:02:56.625Z,15.47
2019-01-19T10:05:27.091Z,15.73
2019-01-19T10:07:56.386Z,14.83
2019-01-19T10:10:25.863Z,13.13
2019-01-19T10:12:55.164Z,13.43
2019-01-19T10:15:24.587Z,13.83
2019-01-19T10:17:53.968Z,11.90
2019-01-19T10:20:25.949Z,14.07
2019-01-19T10:22:55.331Z,13.27
2019-01-19T10:25:26.626Z,11.73
2019-01-19T10:27:55.938Z,11.40
2019-01-19T10:30:31.456Z,10.80
2019-01-19T10:33:00.895Z,12.03
2019-01-19T10:35:30.217Z,12.63
2019-01-19T10:37:59.673Z,13.33
2019-01-19T10:40:28.966Z,11.57
2019-01-19T10:42:58.274Z,10.97
2019-01-19T10:45:30.588Z,9.97
2019-01-19T10:47:59.882Z,11.70
2019-01-19T10:50:29.255Z,12.23
2019-01-19T10:52:58.606Z,11.23
2019-01-19T10:55:27.967Z,12.43
2019-01-19T10:57:57.726Z,10.77
2019-01-19T11:00:33.791Z,10.72
2019-01-19T11:03:05.324Z,12.10
2019-01-19T11:05:35.648Z,11.75
2019-01-19T11:08:07.334Z,11.50
2019-01-19T11:10:37.292Z,11.88
2019-01-19T11:13:07.282Z,11.90
2019-01-19T11:15:37.246Z,12.73
2019-01-19T11:18:07.141Z,13.35
2019-01-19T11:20:37.075Z,12.63
2019-01-19T11:23:07.067Z,13.55
2019-01-19T11:25:36.935Z,14.23
2019-01-19T11:28:06.819Z,13.43
2019-01-19T11:30:36.690Z,13.00
2019-01-19T11:33:06.910Z,13.55
2019-01-19T11:35:36.787Z,13.78
2019-01-19T11:38:11.825Z,13.88
2019-01-19T11:40:38.479Z,14.28
2019-01-19T11:43:08.723Z,12.75
2019-01-19T11:45:38.615Z,14.50
2019-01-19T11:48:08.565Z,14.07
2019-01-19T11:50:38.599Z,14.55
2019-01-19T11:53:08.486Z,13.65
2019-01-19T11:55:38.420Z,14.18
2019-01-19T11:58:08.368Z,13.45
2019-01-19T12:00:42.298Z,13.03
2019-01-19T12:03:12.137Z,13.60
2019-01-19T12:05:42.130Z,14.30
2019-01-19T12:08:19.166Z,14.65
2019-01-19T12:10:44.039Z,14.73
2019-01-19T12:13:13.988Z,13.53
2019-01-19T12:15:43.884Z,18.75
2019-01-19T12:18:13.850Z,13.78
2019-01-19T12:20:43.997Z,12.40
2019-01-19T12:23:13.925Z,13.48
2019-01-19T12:25:43.867Z,12.45
2019-01-19T12:28:13.827Z,12.40
2019-01-19T12:30:43.803Z,11.97
2019-01-19T12:33:13.725Z,12.60
2019-01-19T12:35:44.690Z,12.35
2019-01-19T12:38:14.630Z,12.37
2019-01-19T12:40:44.567Z,12.68
2019-01-19T12:43:16.471Z,12.35
2019-01-19T12:45:54.375Z,13.72
2019-01-19T12:48:24.313Z,13.48
2019-01-19T12:50:54.272Z,13.10
2019-01-19T12:53:24.266Z,12.70
2019-01-19T12:55:54.229Z,12.63
2019-01-19T12:58:25.070Z,12.70
2019-01-19T13:00:55.935Z,13.55
2019-01-19T13:03:25.839Z,13.38
2019-01-19T13:06:02.031Z,14.35
2019-01-19T13:08:58.697Z,13.55
2019-01-19T13:11:31.952Z,13.95
2019-01-19T13:14:03.371Z,13.03
2019-01-19T13:16:56.315Z,13.70
2019-01-19T13:19:32.207Z,15.20
2019-01-19T13:22:21.857Z,18.77
2019-01-19T13:25:00.755Z,18.05
2019-01-19T13:27:55.333Z,17.65
2019-01-19T13:30:34.463Z,19.75
2019-01-19T13:33:22.848Z,18.92
2019-01-19T13:36:28.077Z,18.57
2019-01-19T13:39:10.789Z,16.25
2019-01-19T13:42:00.723Z,17.35
2019-01-19T13:44:55.464Z,16.82
2019-01-19T13:47:31.206Z,15.83
2019-01-19T13:50:33.010Z,16.40
2019-01-19T13:53:08.911Z,16.87
2019-01-19T13:55:44.987Z,15.88
2019-01-19T13:58:24.018Z,14.58
2019-01-19T14:01:07.143Z,13.28
2019-01-19T14:03:43.019Z,13.95
2019-01-19T14:06:16.207Z,14.30
2019-01-19T14:09:09.871Z,14.13
2019-01-19T14:11:45.626Z,14.47
2019-01-19T14:14:18.762Z,15.35
2019-01-19T14:17:09.889Z,16.27
2019-01-19T14:19:45.782Z,15.40
2019-01-19T14:22:53.977Z,15.43
2019-01-19T14:25:30.035Z,16.37
2019-01-19T14:28:15.399Z,16.57
2019-01-19T14:31:18.167Z,19.25
2019-01-19T14:34:00.288Z,20.43
2019-01-19T14:36:45.417Z,17.77
2019-01-19T14:39:30.339Z,18.10
2019-01-19T14:42:12.457Z,20.12
2019-01-19T14:45:01.118Z,17.90
2019-01-19T14:47:46.452Z,16.77
2019-01-19T14:50:32.017Z,15.30
2019-01-19T14:53:17.331Z,14.68
2019-01-19T14:55:59.334Z,15.03
2019-01-19T14:58:32.440Z,16.70
2019-01-19T15:01:24.611Z,16.85
2019-01-19T15:04:09.671Z,17.00
2019-01-19T15:06:59.298Z,19.50
2019-01-19T15:09:35.805Z,20.70
2019-01-19T15:12:20.610Z,23.90
2019-01-19T15:15:05.572Z,24.65
2019-01-19T15:17:56.851Z,21.05
2019-01-19T15:20:32.619Z,23.35
2019-01-19T15:23:28.338Z,26.73
2019-01-19T15:26:10.690Z,23.62
2019-01-19T15:29:03.546Z,20.57
2019-01-19T15:31:52.871Z,20.70
2019-01-19T15:34:45.502Z,19.90
2019-01-19T15:37:26.378Z,20.83
2019-01-19T15:40:11.355Z,22.48
2019-01-19T15:42:46.757Z,21.93
2019-01-19T15:45:24.755Z,21.70
2019-01-19T15:48:00.368Z,22.67
2019-01-19T15:51:02.118Z,22.87
2019-01-19T15:53:43.823Z,24.23
2019-01-19T15:56:25.252Z,23.97
2019-01-19T15:59:06.627Z,26.67
2019-01-19T16:01:43.242Z,26.77
2019-01-19T16:04:15.794Z,24.30
2019-01-19T16:07:03.542Z,24.37
2019-01-19T16:09:51.299Z,23.80
2019-01-19T16:12:23.963Z,25.63
2019-01-19T16:15:13.324Z,24.87
2019-01-19T16:17:58.020Z,24.00
2019-01-19T16:20:33.610Z,24.30
2019-01-19T16:23:29.128Z,25.03
2019-01-19T16:26:20.015Z,25.90
2019-01-19T16:28:58.683Z,23.90
2019-01-19T16:31:42.955Z,23.73
2019-01-19T16:34:32.088Z,24.70
2019-01-19T16:37:04.648Z,29.43
2019-01-19T16:39:54.703Z,30.00
2019-01-19T16:42:36.007Z,31.47
2019-01-19T16:45:14.121Z,33.03
2019-01-19T16:47:49.356Z,38.47
2019-01-19T16:50:30.822Z,40.63
2019-01-19T16:53:06.059Z,40.23
2019-01-19T16:55:55.091Z,38.20
2019-01-19T16:58:28.028Z,42.23
2019-01-19T17:01:06.259Z,40.93
2019-01-19T17:03:50.435Z,43.83
2019-01-19T17:06:25.921Z,44.47
2019-01-19T17:09:01.258Z,46.13
2019-01-19T17:11:59.347Z,43.83
2019-01-19T17:14:40.768Z,43.63
2019-01-19T17:17:19.395Z,45.00
2019-01-19T17:20:17.850Z,44.43
2019-01-19T17:23:08.343Z,45.17
2019-01-19T17:25:49.788Z,45.37
2019-01-19T17:28:22.458Z,45.50
2019-01-19T17:31:00.566Z,46.50
2019-01-19T17:33:48.301Z,48.70
2019-01-19T17:36:33.075Z,55.37
2019-01-19T17:39:27.126Z,53.97
2019-01-19T17:42:08.691Z,60.83
2019-01-19T17:44:59.488Z,58.77
2019-01-19T17:47:32.178Z,70.47
2019-01-19T17:50:21.602Z,86.67
2019-01-19T17:53:08.619Z,89.03
2019-01-19T17:55:43.854Z,111.67
2019-01-19T17:58:38.925Z,115.93
2019-01-19T18:01:23.759Z,83.50
2019-01-19T18:04:01.991Z,78.47
2019-01-19T18:06:46.367Z,83.50
2019-01-19T18:09:54.008Z,86.73
2019-01-19T18:12:32.403Z,85.80
2019-01-19T18:15:26.343Z,84.90
2019-01-19T18:18:10.900Z,91.60
2019-01-19T18:20:52.550Z,97.73
2019-01-19T18:23:43.675Z,101.60
2019-01-19T18:26:36.346Z,107.63
2019-01-19T18:29:11.963Z,108.87
2019-01-19T18:31:53.413Z,107.53
2019-01-19T18:34:42.507Z,106.00
2019-01-19T18:37:42.604Z,109.70
2019-01-19T18:40:24.062Z,125.83
2019-01-19T18:43:11.557Z,133.83
2019-01-19T18:45:53.205Z,142.70
2019-01-19T18:48:34.883Z,154.03
2019-01-19T18:51:16.236Z,164.83
2019-01-19T18:54:05.612Z,165.37
2019-01-19T18:56:43.831Z,139.97
2019-01-19T18:59:16.496Z,124.93
2019-01-19T19:01:57.890Z,126.93
2019-01-19T19:04:33.143Z,112.27
2019-01-19T19:07:17.458Z,113.07
2019-01-19T19:10:02.027Z,111.73
2019-01-19T19:12:32.656Z,113.93
2019-01-19T19:15:27.901Z,109.93
2019-01-19T19:18:18.456Z,114.97
2019-01-19T19:21:00.275Z,115.83
2019-01-19T19:23:49.285Z,111.97
2019-01-19T19:26:55.430Z,111.33
2019-01-19T19:29:42.895Z,107.47
2019-01-19T19:32:30.632Z,107.87
2019-01-19T19:35:21.515Z,109.67
2019-01-19T19:37:57.077Z,106.17
2019-01-19T19:40:38.528Z,112.27
2019-01-19T19:43:19.880Z,112.50
2019-01-19T19:45:52.599Z,112.07
2019-01-19T19:48:27.727Z,111.77
2019-01-19T19:51:15.411Z,112.47
2019-01-19T19:53:44.716Z,112.13
2019-01-19T19:56:13.203Z,110.10
2019-01-19T19:58:42.599Z,112.53
2019-01-19T20:01:11.995Z,114.90
2019-01-19T20:03:41.391Z,113.10
2019-01-19T20:06:10.735Z,116.20
2019-01-19T20:08:40.187Z,122.23
2019-01-19T20:11:09.543Z,117.93
2019-01-19T20:13:38.910Z,116.17
2019-01-19T20:16:08.212Z,116.53
2019-01-19T20:18:37.718Z,123.57
2019-01-19T20:21:07.303Z,123.23
2019-01-19T20:23:36.642Z,116.53
2019-01-19T20:26:06.060Z,114.43
2019-01-19T20:28:35.494Z,111.93
2019-01-19T20:31:04.971Z,111.53
2019-01-19T20:33:34.519Z,112.40
2019-01-19T20:36:04.223Z,118.57
2019-01-19T20:38:33.536Z,124.60
2019-01-19T20:41:02.854Z,137.07
2019-01-19T20:43:32.709Z,149.43
2019-01-19T20:46:02.398Z,146.33
2019-01-19T20:48:32.159Z,137.30
2019-01-19T20:51:01.553Z,125.20
2019-01-19T20:53:31.140Z,117.17
2019-01-19T20:56:00.569Z,128.77
2019-01-19T20:58:29.946Z,174.00
2019-01-19T21:00:59.402Z,159.77
2019-01-19T21:03:28.784Z,149.10
2019-01-19T21:05:58.098Z,124.77
2019-01-19T21:08:27.600Z,115.63
2019-01-19T21:10:56.951Z,150.80
2019-01-19T21:13:26.255Z,164.27
2019-01-19T21:15:55.618Z,147.37
2019-01-19T21:18:24.946Z,143.43
2019-01-19T21:20:54.393Z,126.00
2019-01-19T21:23:23.771Z,125.10
2019-01-19T21:25:53.095Z,126.93
2019-01-19T21:28:22.406Z,124.53
2019-01-19T21:30:51.771Z,119.80
2019-01-19T21:33:21.156Z,118.90
2019-01-19T21:35:50.459Z,119.23
2019-01-19T21:38:20.785Z,114.97
2019-01-19T21:40:50.162Z,119.07
2019-01-19T21:43:19.482Z,122.73
2019-01-19T21:45:48.831Z,125.07
2019-01-19T21:48:18.394Z,125.33
2019-01-19T21:50:49.850Z,129.87
2019-01-19T21:53:19.247Z,125.90
2019-01-19T21:55:48.827Z,128.67
2019-01-19T21:58:18.193Z,136.40
2019-01-19T22:00:47.500Z,131.57
2019-01-19T22:03:17.003Z,133.27
2019-01-19T22:05:49.810Z,121.67
2019-01-19T22:08:44.631Z,123.63
2019-01-19T22:11:14.020Z,118.80
2019-01-19T22:13:44.172Z,117.73
2019-01-19T22:16:13.582Z,122.30
2019-01-19T22:18:43.117Z,121.00
2019-01-19T22:21:12.416Z,121.73
2019-01-19T22:23:41.767Z,123.50
2019-01-19T22:26:12.754Z,126.93
2019-01-19T22:28:42.050Z,127.97
2019-01-19T22:31:11.424Z,126.87
2019-01-19T22:33:40.807Z,126.90
2019-01-19T22:36:10.122Z,128.37
2019-01-19T22:38:39.599Z,127.60
2019-01-19T22:41:08.906Z,132.00
2019-01-19T22:43:38.231Z,130.83
2019-01-19T22:46:07.614Z,129.67
2019-01-19T22:48:36.924Z,132.03
2019-01-19T22:51:11.199Z,127.23
2019-01-19T22:53:37.309Z,132.83
2019-01-19T22:56:06.757Z,138.33
2019-01-19T22:58:36.059Z,154.83
2019-01-19T23:01:17.599Z,149.80
2019-01-19T23:03:46.927Z,139.13
2019-01-19T23:06:16.263Z,127.20
2019-01-19T23:08:45.784Z,124.67
2019-01-19T23:11:15.085Z,119.30
2019-01-19T23:13:44.485Z,117.83
2019-01-19T23:16:13.996Z,117.93
2019-01-19T23:18:43.319Z,119.30
2019-01-19T23:21:12.658Z,121.13
2019-01-19T23:23:41.992Z,119.67
2019-01-19T23:26:11.914Z,113.07
2019-01-19T23:28:41.242Z,111.27
2019-01-19T23:31:10.586Z,110.27
2019-01-19T23:33:39.907Z,109.23
2019-01-19T23:36:09.326Z,106.57
2019-01-19T23:38:38.661Z,111.67
2019-01-19T23:41:09.175Z,113.23
2019-01-19T23:43:38.847Z,109.37
2019-01-19T23:46:08.316Z,112.63
2019-01-19T23:48:37.716Z,119.23
2019-01-19T23:51:11.743Z,119.97
2019-01-19T23:53:42.955Z,110.57
2019-01-19T23:56:12.276Z,113.20
2019-01-19T23:58:41.613Z,120.27
